sensor_id;sensor_type;location;lat;lon;timestamp;noise_LAeq;noise_LA_min;noise_LA_max;noise_LA01;noise_LA95
48967;Laerm;46511;53.148;8.204;2023-04-01T00:01:20;42.19;38.67;56.12;;
48967;Laerm;46511;53.148;8.204;2023-04-01T00:03:47;42.54;39.46;57.38;;
48967;Laerm;46511;53.148;8.204;2023-04-01T00:06:19;53.36;39.23;67.91;;
48967;Laerm;46511;53.148;8.204;2023-04-01T00:08:50;42.17;38.81;56.76;;
48967;Laerm;46511;53.148;8.204;2023-04-01T00:11:23;42.97;38.81;60.27;;
48967;Laerm;46511;53.148;8.204;2023-04-01T00:13:54;42.04;38.67;52.44;;
48967;Laerm;46511;53.148;8.204;2023-04-01T00:16:25;54.93;38.81;71.15;;
48967;Laerm;46511;53.148;8.204;2023-04-01T00:18:57;43.29;38.67;58.07;;
48967;Laerm;46511;53.148;8.204;2023-04-01T00:21:30;48.63;39.08;62.33;;
48967;Laerm;46511;53.148;8.204;2023-04-01T00:24:02;42.37;38.81;59.18;;
48967;Laerm;46511;53.148;8.204;2023-04-01T00:26:33;41.71;38.21;51.66;;
48967;Laerm;46511;53.148;8.204;2023-04-01T00:29:04;42.65;38.21;60.86;;
48967;Laerm;46511;53.148;8.204;2023-04-01T00:31:36;42.13;38.67;61.18;;
48967;Laerm;46511;53.148;8.204;2023-04-01T00:34:07;43.42;38.52;56.82;;
48967;Laerm;46511;53.148;8.204;2023-04-01T00:36:38;50.03;39.34;64.63;;
48967;Laerm;46511;53.148;8.204;2023-04-01T00:39:10;43.52;39.46;64.65;;
48967;Laerm;46511;53.148;8.204;2023-04-01T00:41:41;54.58;40.03;70.24;;
48967;Laerm;46511;53.148;8.204;2023-04-01T00:46:47;45.74;40.80;61.58;;
48967;Laerm;46511;53.148;8.204;2023-04-01T00:49:21;43.49;40.53;58.98;;
48967;Laerm;46511;53.148;8.204;2023-04-01T00:51:55;42.87;39.92;58.54;;
48967;Laerm;46511;53.148;8.204;2023-04-01T00:54:30;42.55;39.81;58.45;;
48967;Laerm;46511;53.148;8.204;2023-04-01T00:57:24;43.68;40.13;58.80;;
48967;Laerm;46511;53.148;8.204;2023-04-01T00:59:58;62.09;40.53;74.05;;
48967;Laerm;46511;53.148;8.204;2023-04-01T01:02:32;45.15;40.80;61.27;;
48967;Laerm;46511;53.148;8.204;2023-04-01T01:05:04;42.42;39.21;54.48;;
48967;Laerm;46511;53.148;8.204;2023-04-01T01:07:47;42.43;39.81;57.31;;
48967;Laerm;46511;53.148;8.204;2023-04-01T01:10:30;54.52;38.95;71.11;;
48967;Laerm;46511;53.148;8.204;2023-04-01T01:15:56;42.36;38.95;52.62;;
48967;Laerm;46511;53.148;8.204;2023-04-01T01:18:39;42.62;38.95;60.17;;
48967;Laerm;46511;53.148;8.204;2023-04-01T01:21:30;42.36;38.52;57.91;;
48967;Laerm;46511;53.148;8.204;2023-04-01T01:27:06;42.29;38.81;59.79;;
48967;Laerm;46511;53.148;8.204;2023-04-01T01:32:18;42.89;38.81;60.79;;
48967;Laerm;46511;53.148;8.204;2023-04-01T01:37:56;42.47;38.67;61.25;;
48967;Laerm;46511;53.148;8.204;2023-04-01T01:40:31;43.40;38.52;60.85;;
48967;Laerm;46511;53.148;8.204;2023-04-01T01:43:05;58.56;39.34;75.52;;
48967;Laerm;46511;53.148;8.204;2023-04-01T01:45:42;45.63;39.21;61.79;;
48967;Laerm;46511;53.148;8.204;2023-04-01T01:48:16;42.62;38.74;58.31;;
48967;Laerm;46511;53.148;8.204;2023-04-01T01:50:48;42.08;38.67;58.35;;
48967;Laerm;46511;53.148;8.204;2023-04-01T01:53:20;42.26;38.37;55.24;;
48967;Laerm;46511;53.148;8.204;2023-04-01T01:55:47;41.69;38.37;57.81;;
48967;Laerm;46511;53.148;8.204;2023-04-01T01:58:27;41.84;38.52;48.58;;
48967;Laerm;46511;53.148;8.204;2023-04-01T02:01:03;41.54;38.21;45.07;;
48967;Laerm;46511;53.148;8.204;2023-04-01T02:03:39;42.86;38.81;61.46;;
48967;Laerm;46511;53.148;8.204;2023-04-01T02:06:15;41.94;38.21;50.90;;
48967;Laerm;46511;53.148;8.204;2023-04-01T02:08:52;42.05;38.52;56.23;;
48967;Laerm;46511;53.148;8.204;2023-04-01T02:11:33;42.66;38.37;60.80;;
48967;Laerm;46511;53.148;8.204;2023-04-01T02:14:22;42.66;38.37;53.65;;
48967;Laerm;46511;53.148;8.204;2023-04-01T02:17:06;53.55;39.08;75.19;;
48967;Laerm;46511;53.148;8.204;2023-04-01T02:19:47;44.13;39.21;60.16;;
48967;Laerm;46511;53.148;8.204;2023-04-01T02:22:31;43.93;39.08;56.54;;
48967;Laerm;46511;53.148;8.204;2023-04-01T02:25:08;45.55;37.32;63.07;;
48967;Laerm;46511;53.148;8.204;2023-04-01T02:27:43;43.00;39.21;59.68;;
48967;Laerm;46511;53.148;8.204;2023-04-01T02:30:16;43.52;38.21;60.35;;
48967;Laerm;46511;53.148;8.204;2023-04-01T02:32:48;42.51;38.95;57.95;;
48967;Laerm;46511;53.148;8.204;2023-04-01T02:35:20;42.53;38.52;58.81;;
48967;Laerm;46511;53.148;8.204;2023-04-01T02:37:52;43.20;38.21;57.51;;
48967;Laerm;46511;53.148;8.204;2023-04-01T02:40:24;42.35;39.21;50.91;;
48967;Laerm;46511;53.148;8.204;2023-04-01T02:42:56;42.29;38.95;53.90;;
48967;Laerm;46511;53.148;8.204;2023-04-01T02:45:27;42.10;38.52;54.58;;
48967;Laerm;46511;53.148;8.204;2023-04-01T02:47:58;42.25;38.81;53.15;;
48967;Laerm;46511;53.148;8.204;2023-04-01T02:50:30;54.03;39.58;71.45;;
48967;Laerm;46511;53.148;8.204;2023-04-01T02:53:02;52.24;39.34;67.35;;
48967;Laerm;46511;53.148;8.204;2023-04-01T02:55:34;43.79;38.21;65.10;;
48967;Laerm;46511;53.148;8.204;2023-04-01T02:58:06;44.63;39.81;60.04;;
48967;Laerm;46511;53.148;8.204;2023-04-01T03:00:37;45.19;39.34;61.04;;
48967;Laerm;46511;53.148;8.204;2023-04-01T03:03:09;44.21;37.70;58.01;;
48967;Laerm;46511;53.148;8.204;2023-04-01T03:05:40;45.29;40.03;60.24;;
48967;Laerm;46511;53.148;8.204;2023-04-01T03:08:11;45.07;39.34;57.02;;
48967;Laerm;46511;53.148;8.204;2023-04-01T03:10:43;45.71;38.95;61.77;;
48967;Laerm;46511;53.148;8.204;2023-04-01T03:13:14;53.19;40.23;68.05;;
48967;Laerm;46511;53.148;8.204;2023-04-01T03:15:40;45.18;40.03;59.46;;
48967;Laerm;46511;53.148;8.204;2023-04-01T03:18:12;45.17;40.23;60.43;;
48967;Laerm;46511;53.148;8.204;2023-04-01T03:20:43;55.56;39.70;69.25;;
48967;Laerm;46511;53.148;8.204;2023-04-01T03:23:14;45.04;39.58;56.67;;
48967;Laerm;46511;53.148;8.204;2023-04-01T03:25:48;45.86;39.81;64.27;;
48967;Laerm;46511;53.148;8.204;2023-04-01T03:28:19;52.45;40.71;68.76;;
48967;Laerm;46511;53.148;8.204;2023-04-01T03:30:50;47.06;40.03;62.17;;
48967;Laerm;46511;53.148;8.204;2023-04-01T03:33:21;53.19;39.92;69.71;;
48967;Laerm;46511;53.148;8.204;2023-04-01T03:35:53;45.37;40.98;55.27;;
48967;Laerm;46511;53.148;8.204;2023-04-01T03:38:24;46.24;41.06;61.91;;
48967;Laerm;46511;53.148;8.204;2023-04-01T03:40:55;54.45;40.98;70.28;;
48967;Laerm;46511;53.148;8.204;2023-04-01T03:43:27;54.60;40.89;70.32;;
48967;Laerm;46511;53.148;8.204;2023-04-01T03:45:58;45.81;40.33;61.13;;
48967;Laerm;46511;53.148;8.204;2023-04-01T03:48:29;48.12;40.80;66.09;;
48967;Laerm;46511;53.148;8.204;2023-04-01T03:51:01;48.26;40.23;64.15;;
48967;Laerm;46511;53.148;8.204;2023-04-01T03:53:37;50.54;40.62;65.30;;
48967;Laerm;46511;53.148;8.204;2023-04-01T03:56:08;54.26;40.33;70.38;;
48967;Laerm;46511;53.148;8.204;2023-04-01T03:58:40;56.78;40.53;72.23;;
48967;Laerm;46511;53.148;8.204;2023-04-01T04:01:19;55.85;42.09;69.04;;
48967;Laerm;46511;53.148;8.204;2023-04-01T04:03:51;55.83;41.22;69.09;;
48967;Laerm;46511;53.148;8.204;2023-04-01T04:06:23;56.43;42.16;70.95;;
48967;Laerm;46511;53.148;8.204;2023-04-01T04:08:55;54.84;41.53;69.70;;
48967;Laerm;46511;53.148;8.204;2023-04-01T04:11:26;54.22;42.35;70.77;;
48967;Laerm;46511;53.148;8.204;2023-04-01T04:13:58;53.68;42.71;69.80;;
48967;Laerm;46511;53.148;8.204;2023-04-01T04:16:29;56.29;42.47;70.49;;
48967;Laerm;46511;53.148;8.204;2023-04-01T04:19:00;54.52;42.82;70.99;;
48967;Laerm;46511;53.148;8.204;2023-04-01T04:21:31;59.27;43.99;71.73;;
48967;Laerm;46511;53.148;8.204;2023-04-01T04:24:03;54.59;42.82;67.39;;
48967;Laerm;46511;53.148;8.204;2023-04-01T04:26:34;57.18;42.74;68.34;;
48967;Laerm;46511;53.148;8.204;2023-04-01T04:29:06;55.13;42.65;67.72;;
48967;Laerm;46511;53.148;8.204;2023-04-01T04:31:37;54.84;43.19;67.15;;
48967;Laerm;46511;53.148;8.204;2023-04-01T04:34:08;56.67;43.63;68.55;;
48967;Laerm;46511;53.148;8.204;2023-04-01T04:36:40;54.13;42.09;68.40;;
48967;Laerm;46511;53.148;8.204;2023-04-01T04:39:11;59.15;42.59;71.03;;
48967;Laerm;46511;53.148;8.204;2023-04-01T04:41:42;54.20;41.38;68.24;;
48967;Laerm;46511;53.148;8.204;2023-04-01T04:44:14;54.43;41.14;73.43;;
48967;Laerm;46511;53.148;8.204;2023-04-01T04:46:45;53.24;41.82;72.66;;
48967;Laerm;46511;53.148;8.204;2023-04-01T04:49:16;56.22;41.61;74.70;;
48967;Laerm;46511;53.148;8.204;2023-04-01T04:51:48;52.04;40.63;72.62;;
48967;Laerm;46511;53.148;8.204;2023-04-01T04:54:19;56.60;41.68;72.42;;
48967;Laerm;46511;53.148;8.204;2023-04-01T04:56:52;54.69;41.30;68.64;;
48967;Laerm;46511;53.148;8.204;2023-04-01T04:59:23;57.27;42.16;69.15;;
48967;Laerm;46511;53.148;8.204;2023-04-01T05:01:55;52.02;41.53;66.30;;
48967;Laerm;46511;53.148;8.204;2023-04-01T05:04:21;44.91;40.80;56.00;;
48967;Laerm;46511;53.148;8.204;2023-04-01T05:06:52;55.49;42.09;67.58;;
48967;Laerm;46511;53.148;8.204;2023-04-01T05:09:23;51.05;41.14;74.95;;
48967;Laerm;46511;53.148;8.204;2023-04-01T05:11:55;55.22;41.96;71.79;;
48967;Laerm;46511;53.148;8.204;2023-04-01T05:14:26;56.64;41.30;74.30;;
48967;Laerm;46511;53.148;8.204;2023-04-01T05:16:57;54.56;41.82;69.50;;
48967;Laerm;46511;53.148;8.204;2023-04-01T05:19:28;55.65;41.38;69.47;;
48967;Laerm;46511;53.148;8.204;2023-04-01T05:22:00;56.61;41.61;70.39;;
48967;Laerm;46511;53.148;8.204;2023-04-01T05:24:32;58.31;42.41;73.21;;
48967;Laerm;46511;53.148;8.204;2023-04-01T05:27:03;55.91;41.38;69.40;;
48967;Laerm;46511;53.148;8.204;2023-04-01T05:29:34;53.13;40.71;66.81;;
48967;Laerm;46511;53.148;8.204;2023-04-01T05:32:06;51.90;40.80;73.14;;
48967;Laerm;46511;53.148;8.204;2023-04-01T05:34:37;45.17;40.89;59.20;;
48967;Laerm;46511;53.148;8.204;2023-04-01T05:37:08;53.13;41.75;71.69;;
48967;Laerm;46511;53.148;8.204;2023-04-01T05:39:40;54.13;41.61;72.19;;
48967;Laerm;46511;53.148;8.204;2023-04-01T05:42:12;57.67;41.38;74.44;;
48967;Laerm;46511;53.148;8.204;2023-04-01T05:44:43;54.80;41.82;70.61;;
48967;Laerm;46511;53.148;8.204;2023-04-01T05:47:14;54.75;41.22;76.71;;
48967;Laerm;46511;53.148;8.204;2023-04-01T05:49:45;59.15;42.16;74.07;;
48967;Laerm;46511;53.148;8.204;2023-04-01T05:52:17;57.26;41.75;68.74;;
48967;Laerm;46511;53.148;8.204;2023-04-01T05:54:48;54.31;41.68;67.24;;
48967;Laerm;46511;53.148;8.204;2023-04-01T05:57:19;54.97;42.03;67.87;;
48967;Laerm;46511;53.148;8.204;2023-04-01T05:59:51;56.10;41.22;67.01;;
48967;Laerm;46511;53.148;8.204;2023-04-01T06:02:22;55.31;40.80;67.20;;
48967;Laerm;46511;53.148;8.204;2023-04-01T06:05:03;55.97;41.22;68.80;;
48967;Laerm;46511;53.148;8.204;2023-04-01T06:07:42;44.37;41.22;55.56;;
48967;Laerm;46511;53.148;8.204;2023-04-01T06:10:19;58.53;42.16;68.50;;
48967;Laerm;46511;53.148;8.204;2023-04-01T06:12:56;58.27;41.14;73.00;;
48967;Laerm;46511;53.148;8.204;2023-04-01T06:15:36;46.11;41.30;60.12;;
48967;Laerm;46511;53.148;8.204;2023-04-01T06:21:37;44.65;41.06;56.89;;
48967;Laerm;46511;53.148;8.204;2023-04-01T06:36:30;53.36;40.80;65.70;;
48967;Laerm;46511;53.148;8.204;2023-04-01T06:47:52;57.09;41.75;69.15;;
48967;Laerm;46511;53.148;8.204;2023-04-01T06:53:51;53.42;41.14;64.93;;
48967;Laerm;46511;53.148;8.204;2023-04-01T06:56:27;55.50;42.16;69.56;;
48967;Laerm;46511;53.148;8.204;2023-04-01T06:59:09;58.41;42.35;67.76;;
48967;Laerm;46511;53.148;8.204;2023-04-01T07:01:48;56.97;42.29;70.58;;
48967;Laerm;46511;53.148;8.204;2023-04-01T07:04:23;55.53;41.30;67.59;;
48967;Laerm;46511;53.148;8.204;2023-04-01T07:07:03;52.65;41.38;66.08;;
48967;Laerm;46511;53.148;8.204;2023-04-01T07:09:39;54.58;41.53;67.25;;
48967;Laerm;46511;53.148;8.204;2023-04-01T07:12:33;50.11;41.75;62.07;;
48967;Laerm;46511;53.148;8.204;2023-04-01T07:15:17;55.99;42.16;74.43;;
48967;Laerm;46511;53.148;8.204;2023-04-01T07:18:04;56.78;42.35;78.22;;
48967;Laerm;46511;53.148;8.204;2023-04-01T07:20:32;59.23;42.98;68.60;;
48967;Laerm;46511;53.148;8.204;2023-04-01T07:23:15;56.35;41.82;68.27;;
48967;Laerm;46511;53.148;8.204;2023-04-01T07:25:52;48.51;41.61;62.06;;
48967;Laerm;46511;53.148;8.204;2023-04-01T07:28:30;57.05;42.47;74.36;;
48967;Laerm;46511;53.148;8.204;2023-04-01T07:31:30;54.12;42.16;72.32;;
48967;Laerm;46511;53.148;8.204;2023-04-01T07:34:15;58.01;42.58;68.84;;
48967;Laerm;46511;53.148;8.204;2023-04-01T07:37:06;54.56;43.04;65.99;;
48967;Laerm;46511;53.148;8.204;2023-04-01T07:50:58;54.22;42.22;68.43;;
48967;Laerm;46511;53.148;8.204;2023-04-01T07:56:07;54.23;42.65;65.18;;
48967;Laerm;46511;53.148;8.204;2023-04-01T07:58:52;57.85;42.22;72.10;;
48967;Laerm;46511;53.148;8.204;2023-04-01T08:07:17;56.70;42.09;69.95;;
48967;Laerm;46511;53.148;8.204;2023-04-01T08:10:02;52.56;41.68;67.80;;
48967;Laerm;46511;53.148;8.204;2023-04-01T08:15:27;54.71;41.96;67.04;;
48967;Laerm;46511;53.148;8.204;2023-04-01T08:18:03;54.18;42.22;64.93;;
48967;Laerm;46511;53.148;8.204;2023-04-01T08:20:38;59.48;42.41;70.24;;
48967;Laerm;46511;53.148;8.204;2023-04-01T08:23:33;57.44;42.22;70.98;;
48967;Laerm;46511;53.148;8.204;2023-04-01T08:26:27;55.47;40.71;71.49;;
48967;Laerm;46511;53.148;8.204;2023-04-01T08:29:13;55.27;41.14;67.06;;
48967;Laerm;46511;53.148;8.204;2023-04-01T08:31:55;53.44;41.61;67.06;;
48967;Laerm;46511;53.148;8.204;2023-04-01T08:34:34;56.90;41.68;70.76;;
48967;Laerm;46511;53.148;8.204;2023-04-01T08:37:11;53.89;42.41;67.45;;
48967;Laerm;46511;53.148;8.204;2023-04-01T08:39:58;59.47;42.76;73.17;;
48967;Laerm;46511;53.148;8.204;2023-04-01T08:42:47;54.08;42.35;65.43;;
48967;Laerm;46511;53.148;8.204;2023-04-01T08:48:41;60.54;44.03;70.32;;
48967;Laerm;46511;53.148;8.204;2023-04-01T09:06:31;60.12;42.47;74.89;;
48967;Laerm;46511;53.148;8.204;2023-04-01T09:12:15;52.32;41.14;64.85;;
48967;Laerm;46511;53.148;8.204;2023-04-01T09:29:54;58.85;42.22;69.03;;
48967;Laerm;46511;53.148;8.204;2023-04-01T09:36:07;56.02;42.35;67.31;;
48967;Laerm;46511;53.148;8.204;2023-04-01T09:41:39;57.06;42.19;70.52;;
48967;Laerm;46511;53.148;8.204;2023-04-01T09:44:25;55.88;42.03;74.63;;
48967;Laerm;46511;53.148;8.204;2023-04-01T09:50:27;55.16;43.29;66.53;;
48967;Laerm;46511;53.148;8.204;2023-04-01T10:08:00;59.21;43.99;70.22;;
48967;Laerm;46511;53.148;8.204;2023-04-01T10:13:43;60.37;43.09;72.82;;
48967;Laerm;46511;53.148;8.204;2023-04-01T10:27:41;56.57;43.68;76.49;;
48967;Laerm;46511;53.148;8.204;2023-04-01T10:42:14;56.83;43.63;66.82;;
48967;Laerm;46511;53.148;8.204;2023-04-01T10:45:13;53.24;42.16;68.47;;
48967;Laerm;46511;53.148;8.204;2023-04-01T10:48:12;54.39;41.75;66.16;;
48967;Laerm;46511;53.148;8.204;2023-04-01T10:53:38;64.22;43.72;79.37;;
48967;Laerm;46511;53.148;8.204;2023-04-01T10:59:15;57.69;44.47;69.62;;
48967;Laerm;46511;53.148;8.204;2023-04-01T11:08:02;55.83;42.71;69.95;;
48967;Laerm;46511;53.148;8.204;2023-04-01T11:16:34;54.37;42.59;67.40;;
48967;Laerm;46511;53.148;8.204;2023-04-01T11:25:35;55.44;42.35;70.25;;
48967;Laerm;46511;53.148;8.204;2023-04-01T11:31:26;58.91;42.42;80.86;;
48967;Laerm;46511;53.148;8.204;2023-04-01T11:43:02;56.18;43.72;71.08;;
48967;Laerm;46511;53.148;8.204;2023-04-01T11:54:10;58.21;44.11;75.79;;
48967;Laerm;46511;53.148;8.204;2023-04-01T11:59:50;60.36;44.31;75.79;;
48967;Laerm;46511;53.148;8.204;2023-04-01T12:05:30;58.38;43.24;71.05;;
48967;Laerm;46511;53.148;8.204;2023-04-01T12:08:17;58.37;42.76;77.49;;
48967;Laerm;46511;53.148;8.204;2023-04-01T12:11:02;58.52;43.68;68.81;;
48967;Laerm;46511;53.148;8.204;2023-04-01T12:22:56;56.98;44.76;74.24;;
48967;Laerm;46511;53.148;8.204;2023-04-01T12:28:33;57.24;44.97;75.92;;
48967;Laerm;46511;53.148;8.204;2023-04-01T12:37:58;59.81;44.73;81.85;;
48967;Laerm;46511;53.148;8.204;2023-04-01T12:40:46;57.46;44.23;77.25;;
48967;Laerm;46511;53.148;8.204;2023-04-01T12:44:19;57.21;45.54;68.81;;
48967;Laerm;46511;53.148;8.204;2023-04-01T12:46:42;59.62;44.31;72.84;;
48967;Laerm;46511;53.148;8.204;2023-04-01T13:04:02;60.18;44.19;75.11;;
48967;Laerm;46511;53.148;8.204;2023-04-01T13:06:57;60.12;44.15;74.31;;
48967;Laerm;46511;53.148;8.204;2023-04-01T13:09:46;60.29;44.39;75.27;;
48967;Laerm;46511;53.148;8.204;2023-04-01T13:18:51;60.83;46.43;75.83;;
48967;Laerm;46511;53.148;8.204;2023-04-01T13:21:38;60.48;45.01;72.04;;
48967;Laerm;46511;53.148;8.204;2023-04-01T13:24:40;58.83;45.30;75.88;;
48967;Laerm;46511;53.148;8.204;2023-04-01T13:27:25;59.15;44.62;72.76;;
48967;Laerm;46511;53.148;8.204;2023-04-01T13:33:35;52.56;43.29;65.02;;
48967;Laerm;46511;53.148;8.204;2023-04-01T13:36:18;56.39;43.14;66.71;;
48967;Laerm;46511;53.148;8.204;2023-04-01T13:39:20;54.35;43.09;71.22;;
48967;Laerm;46511;53.148;8.204;2023-04-01T13:42:16;55.71;43.49;78.04;;
48967;Laerm;46511;53.148;8.204;2023-04-01T13:44:56;56.72;43.55;69.83;;
48967;Laerm;46511;53.148;8.204;2023-04-01T13:47:43;59.46;44.58;76.55;;
48967;Laerm;46511;53.148;8.204;2023-04-01T13:50:34;58.37;44.11;74.57;;
48967;Laerm;46511;53.148;8.204;2023-04-01T13:56:34;52.96;43.77;66.01;;
48967;Laerm;46511;53.148;8.204;2023-04-01T14:05:09;60.35;45.17;83.18;;
48967;Laerm;46511;53.148;8.204;2023-04-01T14:08:14;58.61;44.11;77.53;;
48967;Laerm;46511;53.148;8.204;2023-04-01T14:11:22;56.18;43.19;73.13;;
48967;Laerm;46511;53.148;8.204;2023-04-01T14:20:04;59.40;44.03;79.07;;
48967;Laerm;46511;53.148;8.204;2023-04-01T14:23:01;56.42;44.19;78.28;;
48967;Laerm;46511;53.148;8.204;2023-04-01T14:26:03;59.64;45.54;73.17;;
48967;Laerm;46511;53.148;8.204;2023-04-01T14:31:48;82.39;44.58;101.47;;
48967;Laerm;46511;53.148;8.204;2023-04-01T14:34:34;58.04;43.24;72.99;;
48967;Laerm;46511;53.148;8.204;2023-04-01T14:43:33;60.14;44.94;76.37;;
48967;Laerm;46511;53.148;8.204;2023-04-01T14:49:35;60.08;44.51;82.88;;
48967;Laerm;46511;53.148;8.204;2023-04-01T14:54:49;56.43;43.58;74.63;;
48967;Laerm;46511;53.148;8.204;2023-04-01T14:57:25;58.55;44.51;71.03;;
48967;Laerm;46511;53.148;8.204;2023-04-01T15:00:09;57.53;44.23;75.10;;
48967;Laerm;46511;53.148;8.204;2023-04-01T15:03:08;56.00;43.19;75.79;;
48967;Laerm;46511;53.148;8.204;2023-04-01T15:05:55;54.07;41.61;66.63;;
48967;Laerm;46511;53.148;8.204;2023-04-01T15:08:33;51.88;42.59;73.35;;
48967;Laerm;46511;53.148;8.204;2023-04-01T15:11:29;58.52;43.44;76.02;;
48967;Laerm;46511;53.148;8.204;2023-04-01T15:14:30;57.43;43.24;79.85;;
48967;Laerm;46511;53.148;8.204;2023-04-01T15:20:17;58.27;43.39;70.98;;
48967;Laerm;46511;53.148;8.204;2023-04-01T15:23:08;56.76;43.81;77.72;;
48967;Laerm;46511;53.148;8.204;2023-04-01T15:37:43;55.65;42.93;71.12;;
48967;Laerm;46511;53.148;8.204;2023-04-01T15:40:30;59.78;44.07;71.25;;
48967;Laerm;46511;53.148;8.204;2023-04-01T15:46:11;58.63;44.54;77.49;;
48967;Laerm;46511;53.148;8.204;2023-04-01T15:49:04;56.99;44.11;69.42;;
48967;Laerm;46511;53.148;8.204;2023-04-01T15:55:09;59.90;45.11;74.15;;
48967;Laerm;46511;53.148;8.204;2023-04-01T15:58:00;57.06;43.72;73.87;;
48967;Laerm;46511;53.148;8.204;2023-04-01T16:00:49;57.47;44.03;68.94;;
48967;Laerm;46511;53.148;8.204;2023-04-01T16:03:40;58.00;43.86;76.95;;
48967;Laerm;46511;53.148;8.204;2023-04-01T16:06:39;59.40;43.19;73.04;;
48967;Laerm;46511;53.148;8.204;2023-04-01T16:09:27;58.39;44.23;78.90;;
48967;Laerm;46511;53.148;8.204;2023-04-01T16:15:01;55.70;43.39;65.14;;
48967;Laerm;46511;53.148;8.204;2023-04-01T16:20:53;59.06;43.09;72.41;;
48967;Laerm;46511;53.148;8.204;2023-04-01T16:23:43;59.02;44.11;80.53;;
48967;Laerm;46511;53.148;8.204;2023-04-01T16:26:38;55.45;43.72;69.85;;
48967;Laerm;46511;53.148;8.204;2023-04-01T16:37:43;57.81;42.98;75.10;;
48967;Laerm;46511;53.148;8.204;2023-04-01T16:43:28;56.13;42.82;70.26;;
48967;Laerm;46511;53.148;8.204;2023-04-01T16:46:33;57.34;42.71;76.09;;
48967;Laerm;46511;53.148;8.204;2023-04-01T16:54:45;53.63;42.09;81.92;;
48967;Laerm;46511;53.148;8.204;2023-04-01T16:57:19;52.55;42.71;68.08;;
48967;Laerm;46511;53.148;8.204;2023-04-01T17:00:22;51.01;41.14;72.37;;
48967;Laerm;46511;53.148;8.204;2023-04-01T17:03:39;55.36;43.09;71.38;;
48967;Laerm;46511;53.148;8.204;2023-04-01T17:17:43;50.92;41.75;74.89;;
48967;Laerm;46511;53.148;8.204;2023-04-01T17:20:42;54.92;43.29;70.37;;
48967;Laerm;46511;53.148;8.204;2023-04-01T17:23:22;53.06;43.14;66.34;;
48967;Laerm;46511;53.148;8.204;2023-04-01T17:26:13;62.92;44.31;77.27;;
48967;Laerm;46511;53.148;8.204;2023-04-01T17:28:57;55.73;42.93;76.54;;
48967;Laerm;46511;53.148;8.204;2023-04-01T17:31:41;54.05;42.93;66.43;;
48967;Laerm;46511;53.148;8.204;2023-04-01T17:34:34;57.90;42.03;71.35;;
48967;Laerm;46511;53.148;8.204;2023-04-01T17:37:24;54.83;41.82;82.32;;
48967;Laerm;46511;53.148;8.204;2023-04-01T17:42:46;55.56;42.09;65.57;;
48967;Laerm;46511;53.148;8.204;2023-04-01T17:48:39;55.95;42.65;77.94;;
48967;Laerm;46511;53.148;8.204;2023-04-01T17:51:25;57.17;43.86;70.87;;
48967;Laerm;46511;53.148;8.204;2023-04-01T17:54:20;52.65;42.47;64.91;;
48967;Laerm;46511;53.148;8.204;2023-04-01T17:57:30;54.46;42.22;69.18;;
48967;Laerm;46511;53.148;8.204;2023-04-01T18:00:24;55.12;43.09;69.06;;
48967;Laerm;46511;53.148;8.204;2023-04-01T18:03:06;50.94;40.98;68.03;;
48967;Laerm;46511;53.148;8.204;2023-04-01T18:05:51;56.66;41.06;70.19;;
48967;Laerm;46511;53.148;8.204;2023-04-01T18:08:54;55.45;41.53;70.13;;
48967;Laerm;46511;53.148;8.204;2023-04-01T18:11:38;55.32;41.96;70.12;;
48967;Laerm;46511;53.148;8.204;2023-04-01T18:19:57;56.39;42.53;71.09;;
48967;Laerm;46511;53.148;8.204;2023-04-01T18:22:44;55.53;41.68;71.98;;
48967;Laerm;46511;53.148;8.204;2023-04-01T18:25:21;57.87;42.03;71.57;;
48967;Laerm;46511;53.148;8.204;2023-04-01T18:30:56;53.57;40.89;71.52;;
48967;Laerm;46511;53.148;8.204;2023-04-01T18:34:02;48.66;40.89;63.61;;
48967;Laerm;46511;53.148;8.204;2023-04-01T18:36:39;50.95;41.75;62.64;;
48967;Laerm;46511;53.148;8.204;2023-04-01T18:39:19;54.28;40.33;66.25;;
48967;Laerm;46511;53.148;8.204;2023-04-01T18:44:56;64.94;55.88;84.90;;
48967;Laerm;46511;53.148;8.204;2023-04-01T18:47:44;60.93;43.39;73.41;;
48967;Laerm;46511;53.148;8.204;2023-04-01T18:50:37;51.75;40.71;68.74;;
48967;Laerm;46511;53.148;8.204;2023-04-01T18:56:29;45.65;40.53;64.88;;
48967;Laerm;46511;53.148;8.204;2023-04-01T18:59:16;55.71;39.92;72.43;;
48967;Laerm;46511;53.148;8.204;2023-04-01T19:02:02;64.84;56.40;76.84;;
48967;Laerm;46511;53.148;8.204;2023-04-01T19:04:45;50.86;41.38;65.86;;
48967;Laerm;46511;53.148;8.204;2023-04-01T19:08:33;52.79;40.18;75.33;;
48967;Laerm;46511;53.148;8.204;2023-04-01T19:19:46;57.12;40.80;83.31;;
48967;Laerm;46511;53.148;8.204;2023-04-01T19:25:35;52.62;40.43;66.31;;
48967;Laerm;46511;53.148;8.204;2023-04-01T19:28:31;54.58;40.13;70.79;;
48967;Laerm;46511;53.148;8.204;2023-04-01T19:31:28;51.21;40.03;63.52;;
48967;Laerm;46511;53.148;8.204;2023-04-01T19:36:52;52.64;40.33;70.91;;
48967;Laerm;46511;53.148;8.204;2023-04-01T19:39:38;54.01;41.19;69.19;;
48967;Laerm;46511;53.148;8.204;2023-04-01T19:45:30;48.12;40.33;69.03;;
48967;Laerm;46511;53.148;8.204;2023-04-01T19:51:25;51.11;39.89;71.88;;
48967;Laerm;46511;53.148;8.204;2023-04-01T19:57:05;44.86;41.06;60.12;;
48967;Laerm;46511;53.148;8.204;2023-04-01T20:00:02;49.25;41.22;62.97;;
48967;Laerm;46511;53.148;8.204;2023-04-01T20:05:48;48.21;41.46;64.99;;
48967;Laerm;46511;53.148;8.204;2023-04-01T20:08:38;45.57;39.92;63.89;;
48967;Laerm;46511;53.148;8.204;2023-04-01T20:11:22;55.37;42.93;67.51;;
48967;Laerm;46511;53.148;8.204;2023-04-01T20:14:13;54.58;40.98;72.90;;
48967;Laerm;46511;53.148;8.204;2023-04-01T20:19:28;51.55;40.53;67.49;;
48967;Laerm;46511;53.148;8.204;2023-04-01T20:22:05;50.23;39.58;66.85;;
48967;Laerm;46511;53.148;8.204;2023-04-01T20:24:42;56.47;41.30;66.98;;
48967;Laerm;46511;53.148;8.204;2023-04-01T20:27:20;46.47;39.21;66.28;;
48967;Laerm;46511;53.148;8.204;2023-04-01T20:33:26;44.75;40.43;58.04;;
48967;Laerm;46511;53.148;8.204;2023-04-01T20:41:27;53.39;40.23;65.92;;
48967;Laerm;46511;53.148;8.204;2023-04-01T21:03:23;52.18;40.43;68.69;;
48967;Laerm;46511;53.148;8.204;2023-04-01T21:08:48;46.46;40.71;66.33;;
48967;Laerm;46511;53.148;8.204;2023-04-01T21:17:17;56.17;38.52;82.82;;
48967;Laerm;46511;53.148;8.204;2023-04-01T21:20:09;54.12;40.23;65.63;;
48967;Laerm;46511;53.148;8.204;2023-04-01T21:28:35;53.89;40.62;75.74;;
48967;Laerm;46511;53.148;8.204;2023-04-01T21:34:35;52.34;39.92;76.86;;
48967;Laerm;46511;53.148;8.204;2023-04-01T21:37:41;46.12;40.43;64.75;;
48967;Laerm;46511;53.148;8.204;2023-04-01T21:43:33;49.83;40.43;70.27;;
48967;Laerm;46511;53.148;8.204;2023-04-01T21:49:49;52.61;40.80;72.00;;
48967;Laerm;46511;53.148;8.204;2023-04-01T21:52:45;52.01;39.58;68.44;;
48967;Laerm;46511;53.148;8.204;2023-04-01T21:58:34;53.42;39.21;69.13;;
48967;Laerm;46511;53.148;8.204;2023-04-01T22:04:32;55.09;40.89;72.90;;
48967;Laerm;46511;53.148;8.204;2023-04-01T22:07:19;44.29;39.81;60.70;;
48967;Laerm;46511;53.148;8.204;2023-04-01T22:10:50;45.39;37.88;70.43;;
48967;Laerm;46511;53.148;8.204;2023-04-01T22:13:07;47.07;40.43;65.13;;
48967;Laerm;46511;53.148;8.204;2023-04-01T22:15:54;44.36;39.21;60.04;;
48967;Laerm;46511;53.148;8.204;2023-04-01T22:18:49;44.89;39.21;66.76;;